Time;durP1;ratioP1;P1;durP2;ratioP2;P2;SDS_P1;SDS_P2;PMS_P1;PMS_P2;Temp;Humidity;BMP_temperature;BMP_pressure;BME280_temperature;BME280_humidity;BME280_pressure;Samples;Min_cycle;Max_cycle;Signal;HPM_P1;HPM_P2
2023/07/25 00:00:23;;;;;;;11.38;10.88;;;;;;;;;;5046750;28;20151;-62
2023/07/25 00:02:49;;;;;;;11.27;10.77;;;;;;;;;;5045977;28;20135;-60
2023/07/25 00:05:14;;;;;;;11.30;10.80;;;;;;;;;;5044788;28;20049;-61
2023/07/25 00:07:39;;;;;;;11.05;10.55;;;;;;;;;;5041324;28;20171;-62
2023/07/25 00:10:05;;;;;;;11.23;10.73;;;;;;;;;;5047913;28;20032;-61
2023/07/25 00:12:30;;;;;;;11.63;11.13;;;;;;;;;;5046608;28;20024;-61
2023/07/25 00:14:55;;;;;;;11.23;10.73;;;;;;;;;;5048389;28;20066;-60
2023/07/25 00:17:21;;;;;;;11.73;11.20;;;;;;;;;;5046150;28;20060;-60
2023/07/25 00:19:46;;;;;;;11.32;10.82;;;;;;;;;;5048000;28;20028;-62
2023/07/25 00:22:11;;;;;;;11.60;11.10;;;;;;;;;;5048346;28;20033;-61
2023/07/25 00:24:37;;;;;;;11.38;10.88;;;;;;;;;;5048195;28;20067;-60
2023/07/25 00:27:02;;;;;;;11.32;10.82;;;;;;;;;;5043518;28;20040;-62
2023/07/25 00:29:27;;;;;;;11.50;11.00;;;;;;;;;;5049084;28;20090;-60
2023/07/25 00:31:53;;;;;;;11.40;10.90;;;;;;;;;;5054611;28;20020;-60
2023/07/25 00:34:18;;;;;;;11.60;11.10;;;;;;;;;;5054048;28;20028;-60
2023/07/25 00:36:43;;;;;;;11.40;10.90;;;;;;;;;;5050916;28;20025;-61
2023/07/25 00:39:10;;;;;;;11.50;11.00;;;;;;;;;;5049103;28;20027;-60
2023/07/25 00:41:36;;;;;;;11.60;11.10;;;;;;;;;;5051996;28;20495;-61
2023/07/25 00:44:01;;;;;;;11.40;10.90;;;;;;;;;;5053002;28;20025;-60
2023/07/25 00:46:26;;;;;;;11.60;11.10;;;;;;;;;;5052821;28;20472;-61
2023/07/25 00:48:52;;;;;;;11.70;11.20;;;;;;;;;;5053175;28;20032;-61
2023/07/25 00:51:17;;;;;;;11.80;11.30;;;;;;;;;;5054166;28;20071;-60
2023/07/25 00:53:43;;;;;;;12.00;11.40;;;;;;;;;;5046764;28;20065;-61
2023/07/25 00:56:09;;;;;;;11.35;10.85;;;;;;;;;;5050013;28;20068;-61
2023/07/25 00:58:34;;;;;;;11.35;10.85;;;;;;;;;;5052176;28;20430;-61
2023/07/25 01:01:03;;;;;;;11.90;11.38;;;;;;;;;;5052658;28;20025;-61
2023/07/25 01:03:29;;;;;;;11.77;11.27;;;;;;;;;;5055929;28;20111;-61
2023/07/25 01:05:55;;;;;;;12.02;11.43;;;;;;;;;;5048766;28;20506;-61
2023/07/25 01:08:20;;;;;;;11.93;11.32;;;;;;;;;;5052957;28;20041;-61
2023/07/25 01:10:45;;;;;;;11.38;10.88;;;;;;;;;;5034903;28;20392;-61
2023/07/25 01:13:11;;;;;;;11.30;10.80;;;;;;;;;;5052516;28;20111;-61
2023/07/25 01:15:36;;;;;;;11.90;11.32;;;;;;;;;;5052807;28;20285;-61
2023/07/25 01:18:02;;;;;;;11.30;10.80;;;;;;;;;;5049223;28;20104;-60
2023/07/25 01:20:28;;;;;;;11.45;10.95;;;;;;;;;;5052505;28;20446;-61
2023/07/25 01:22:54;;;;;;;11.68;11.18;;;;;;;;;;5050574;28;20039;-61
2023/07/25 01:25:19;;;;;;;11.38;10.88;;;;;;;;;;5051608;28;20028;-61
2023/07/25 01:27:44;;;;;;;11.60;11.10;;;;;;;;;;5052881;28;20021;-61
2023/07/25 01:30:10;;;;;;;11.13;10.63;;;;;;;;;;5052340;28;20017;-61
2023/07/25 01:32:35;;;;;;;11.60;11.10;;;;;;;;;;5051301;28;20060;-62
2023/07/25 01:35:00;;;;;;;11.40;10.90;;;;;;;;;;5052494;28;20020;-61
2023/07/25 01:37:26;;;;;;;11.30;10.80;;;;;;;;;;5052477;28;20397;-61
2023/07/25 01:39:51;;;;;;;11.93;11.32;;;;;;;;;;5052382;28;20036;-61
2023/07/25 01:42:16;;;;;;;11.20;10.70;;;;;;;;;;5050987;28;20021;-62
2023/07/25 01:44:42;;;;;;;11.50;11.00;;;;;;;;;;5050199;28;20100;-62
2023/07/25 01:47:07;;;;;;;11.50;11.00;;;;;;;;;;5049235;28;20021;-61
2023/07/25 01:49:32;;;;;;;11.50;11.00;;;;;;;;;;5049847;28;20062;-61
2023/07/25 01:51:58;;;;;;;11.60;11.10;;;;;;;;;;5051628;28;20048;-61
2023/07/25 01:54:23;;;;;;;12.30;11.70;;;;;;;;;;5048910;28;20029;-61
2023/07/25 01:56:48;;;;;;;11.95;11.35;;;;;;;;;;5049963;28;20503;-60
2023/07/25 01:59:14;;;;;;;11.30;10.80;;;;;;;;;;5046809;28;20086;-61
2023/07/25 02:01:39;;;;;;;11.38;10.88;;;;;;;;;;5048917;28;20091;-61
2023/07/25 02:04:04;;;;;;;12.15;11.55;;;;;;;;;;5048314;28;20485;-61
2023/07/25 02:06:30;;;;;;;11.63;11.13;;;;;;;;;;5047899;28;20025;-60
2023/07/25 02:08:55;;;;;;;11.60;11.10;;;;;;;;;;5047635;28;20045;-60
2023/07/25 02:11:20;;;;;;;12.13;11.52;;;;;;;;;;5032086;28;20272;-61
2023/07/25 02:13:45;;;;;;;11.75;11.25;;;;;;;;;;5046193;28;20366;-60
2023/07/25 02:16:11;;;;;;;11.45;10.95;;;;;;;;;;5047612;28;20115;-62
2023/07/25 02:18:36;;;;;;;12.23;11.63;;;;;;;;;;5048218;28;20403;-60
2023/07/25 02:21:02;;;;;;;11.85;11.25;;;;;;;;;;5050225;28;20378;-61
2023/07/25 02:23:27;;;;;;;11.70;11.20;;;;;;;;;;5047043;28;20074;-62
2023/07/25 02:25:52;;;;;;;11.50;11.00;;;;;;;;;;5045532;28;20484;-60
2023/07/25 02:28:18;;;;;;;11.43;10.93;;;;;;;;;;5048292;28;20070;-61
2023/07/25 02:30:45;;;;;;;11.57;11.07;;;;;;;;;;5047650;28;20021;-62
2023/07/25 02:33:10;;;;;;;11.15;10.65;;;;;;;;;;5046481;28;20030;-61
2023/07/25 02:35:35;;;;;;;12.32;11.73;;;;;;;;;;5048452;28;20040;-60
2023/07/25 02:38:00;;;;;;;11.63;11.10;;;;;;;;;;5046722;28;20024;-61
2023/07/25 02:40:26;;;;;;;11.93;11.32;;;;;;;;;;5047515;28;20029;-61
2023/07/25 02:42:51;;;;;;;11.60;11.10;;;;;;;;;;5049059;28;20552;-60
2023/07/25 02:45:17;;;;;;;12.40;11.80;;;;;;;;;;5030752;28;20021;-61
2023/07/25 02:47:42;;;;;;;11.48;10.98;;;;;;;;;;5049664;28;20028;-61
2023/07/25 02:50:07;;;;;;;11.70;11.20;;;;;;;;;;5046863;28;20029;-60
2023/07/25 02:52:33;;;;;;;11.38;10.88;;;;;;;;;;5048981;28;20040;-61
2023/07/25 02:54:58;;;;;;;11.10;10.60;;;;;;;;;;5048872;28;20028;-62
2023/07/25 02:57:23;;;;;;;11.38;10.88;;;;;;;;;;5050815;28;20035;-60
2023/07/25 02:59:49;;;;;;;11.63;11.13;;;;;;;;;;5047440;28;20025;-61
2023/07/25 03:02:14;;;;;;;11.10;10.60;;;;;;;;;;5043676;28;20025;-61
2023/07/25 03:04:39;;;;;;;12.15;11.55;;;;;;;;;;5046822;28;20488;-61
2023/07/25 03:07:05;;;;;;;11.25;10.75;;;;;;;;;;5041454;28;20542;-60
2023/07/25 03:09:30;;;;;;;12.02;11.43;;;;;;;;;;5047760;28;20103;-61
2023/07/25 03:11:56;;;;;;;11.20;10.70;;;;;;;;;;5050818;28;20037;-60
2023/07/25 03:14:21;;;;;;;11.50;11.00;;;;;;;;;;5046467;28;20028;-60
2023/07/25 03:16:46;;;;;;;11.07;10.57;;;;;;;;;;5047332;28;20082;-60
2023/07/25 03:19:12;;;;;;;11.68;11.15;;;;;;;;;;5048097;28;20029;-61
2023/07/25 03:21:37;;;;;;;11.57;11.07;;;;;;;;;;5047886;28;20087;-62
2023/07/25 03:24:02;;;;;;;11.52;11.02;;;;;;;;;;5045448;28;20095;-61
2023/07/25 03:26:27;;;;;;;11.98;11.45;;;;;;;;;;5049572;28;20427;-62
2023/07/25 03:28:53;;;;;;;11.57;11.07;;;;;;;;;;5048582;28;20040;-60
2023/07/25 03:31:18;;;;;;;11.35;10.85;;;;;;;;;;5045945;28;20530;-61
2023/07/25 03:33:43;;;;;;;11.53;11.03;;;;;;;;;;5043610;28;20033;-61
2023/07/25 03:36:09;;;;;;;11.27;10.77;;;;;;;;;;5028953;28;20836;-60
2023/07/25 03:38:35;;;;;;;11.82;11.32;;;;;;;;;;5046240;28;20404;-60
2023/07/25 03:41:00;;;;;;;11.55;11.05;;;;;;;;;;5049182;28;20380;-61
2023/07/25 03:43:25;;;;;;;12.07;11.57;;;;;;;;;;5049158;28;20495;-61
2023/07/25 03:45:50;;;;;;;11.63;11.13;;;;;;;;;;5048098;28;20036;-61
2023/07/25 03:48:16;;;;;;;11.68;11.18;;;;;;;;;;5049430;28;20028;-60
2023/07/25 03:50:41;;;;;;;11.50;11.00;;;;;;;;;;5046730;28;20024;-61
2023/07/25 03:53:06;;;;;;;11.70;11.20;;;;;;;;;;5046390;28;20037;-61
2023/07/25 03:55:32;;;;;;;12.00;11.50;;;;;;;;;;5047584;28;20036;-61
2023/07/25 03:57:57;;;;;;;11.68;11.18;;;;;;;;;;5047266;28;20088;-62
2023/07/25 04:00:22;;;;;;;11.77;11.27;;;;;;;;;;5043915;28;20118;-61
2023/07/25 04:02:48;;;;;;;11.40;10.90;;;;;;;;;;5046891;28;20040;-60
2023/07/25 04:05:14;;;;;;;11.70;11.20;;;;;;;;;;5045706;28;20028;-61
2023/07/25 04:07:39;;;;;;;11.50;11.00;;;;;;;;;;5044877;28;20052;-61
2023/07/25 04:10:05;;;;;;;11.37;10.87;;;;;;;;;;5046927;28;20055;-61
2023/07/25 04:12:30;;;;;;;11.90;11.40;;;;;;;;;;5044904;28;20278;-62
2023/07/25 04:14:55;;;;;;;11.23;10.73;;;;;;;;;;5044145;28;20033;-61
2023/07/25 04:17:20;;;;;;;11.43;10.93;;;;;;;;;;5046143;28;20025;-60
2023/07/25 04:19:46;;;;;;;11.70;11.20;;;;;;;;;;5045355;28;20680;-59
2023/07/25 04:22:11;;;;;;;11.63;11.13;;;;;;;;;;5043068;28;20028;-61
2023/07/25 04:24:37;;;;;;;11.60;11.10;;;;;;;;;;5046143;28;20534;-61
2023/07/25 04:27:02;;;;;;;11.80;11.30;;;;;;;;;;5046099;28;20298;-65
2023/07/25 04:29:27;;;;;;;11.50;11.00;;;;;;;;;;5046052;28;20024;-60
2023/07/25 04:31:53;;;;;;;11.35;10.85;;;;;;;;;;5044762;28;20048;-60
2023/07/25 04:34:18;;;;;;;11.57;11.07;;;;;;;;;;5044641;28;20128;-60
2023/07/25 04:36:43;;;;;;;11.60;11.10;;;;;;;;;;5042541;28;20273;-62
2023/07/25 04:39:09;;;;;;;11.50;11.00;;;;;;;;;;5025184;28;20075;-62
2023/07/25 04:41:34;;;;;;;11.55;11.05;;;;;;;;;;5049262;28;20036;-60
2023/07/25 04:44:00;;;;;;;11.52;11.02;;;;;;;;;;5044519;28;20033;-61
2023/07/25 04:46:25;;;;;;;11.60;11.10;;;;;;;;;;5046479;28;20025;-61
2023/07/25 04:48:50;;;;;;;11.35;10.85;;;;;;;;;;5045691;28;20273;-61
2023/07/25 04:51:15;;;;;;;11.87;11.37;;;;;;;;;;5046822;28;20025;-60
2023/07/25 04:53:41;;;;;;;11.60;11.10;;;;;;;;;;5044014;28;20036;-61
2023/07/25 04:56:06;;;;;;;11.40;10.90;;;;;;;;;;5048784;28;20289;-60
2023/07/25 04:58:31;;;;;;;11.50;11.00;;;;;;;;;;5046333;28;20017;-60
2023/07/25 05:00:57;;;;;;;11.40;10.90;;;;;;;;;;5040218;28;20314;-60
2023/07/25 05:03:22;;;;;;;11.40;10.90;;;;;;;;;;5041753;28;20037;-61
2023/07/25 05:05:51;;;;;;;11.20;10.70;;;;;;;;;;5041636;28;20029;-58
2023/07/25 05:08:16;;;;;;;11.32;10.82;;;;;;;;;;5038890;28;20156;-60
2023/07/25 05:10:41;;;;;;;11.23;10.73;;;;;;;;;;5042972;28;20021;-60
2023/07/25 05:13:06;;;;;;;11.43;10.93;;;;;;;;;;5043794;28;20041;-61
2023/07/25 05:15:32;;;;;;;11.40;10.90;;;;;;;;;;5040758;28;20025;-59
2023/07/25 05:17:57;;;;;;;11.30;10.80;;;;;;;;;;5046879;28;20082;-61
2023/07/25 05:20:22;;;;;;;11.27;10.77;;;;;;;;;;5045138;28;20025;-60
2023/07/25 05:22:48;;;;;;;11.30;10.80;;;;;;;;;;5043832;28;20282;-61
2023/07/25 05:25:13;;;;;;;11.23;10.73;;;;;;;;;;5042867;28;20274;-60
2023/07/25 05:27:38;;;;;;;11.37;10.87;;;;;;;;;;5046073;28;20026;-60
2023/07/25 05:30:04;;;;;;;11.13;10.63;;;;;;;;;;5043514;28;20324;-61
2023/07/25 05:32:29;;;;;;;11.32;10.82;;;;;;;;;;5045929;28;20063;-60
2023/07/25 05:34:55;;;;;;;11.40;10.90;;;;;;;;;;5041756;28;20052;-60
2023/07/25 05:37:21;;;;;;;11.48;10.98;;;;;;;;;;5046392;28;20025;-60
2023/07/25 05:39:49;;;;;;;11.43;10.93;;;;;;;;;;5044779;28;20090;-60
2023/07/25 05:42:14;;;;;;;11.00;10.50;;;;;;;;;;5047311;28;20055;-60
2023/07/25 05:44:40;;;;;;;11.03;10.53;;;;;;;;;;5048686;28;20468;-61
2023/07/25 05:47:05;;;;;;;11.37;10.87;;;;;;;;;;5046196;28;20013;-61
2023/07/25 05:49:31;;;;;;;11.43;10.93;;;;;;;;;;5045968;28;20029;-63
2023/07/25 05:51:56;;;;;;;11.80;11.30;;;;;;;;;;5037665;28;20078;-72
2023/07/25 05:54:21;;;;;;;11.57;11.07;;;;;;;;;;5045358;28;20026;-65
2023/07/25 05:56:46;;;;;;;11.43;10.93;;;;;;;;;;5040254;28;20270;-64
2023/07/25 05:59:12;;;;;;;11.57;11.07;;;;;;;;;;5042782;28;20017;-64
2023/07/25 06:01:39;;;;;;;11.50;11.00;;;;;;;;;;5042138;28;20414;-62
2023/07/25 06:04:04;;;;;;;11.25;10.75;;;;;;;;;;5042369;28;20079;-62
2023/07/25 06:06:29;;;;;;;11.30;10.80;;;;;;;;;;5040300;28;20469;-64
2023/07/25 06:08:55;;;;;;;11.50;11.00;;;;;;;;;;5022748;28;20302;-64
2023/07/25 06:11:22;;;;;;;11.30;10.80;;;;;;;;;;5041941;28;20282;-65
2023/07/25 06:13:49;;;;;;;11.52;11.02;;;;;;;;;;5043064;28;20029;-65
2023/07/25 06:16:15;;;;;;;11.15;10.65;;;;;;;;;;5042258;28;20021;-65
2023/07/25 06:18:40;;;;;;;11.48;10.98;;;;;;;;;;5043029;28;20056;-63
2023/07/25 06:21:06;;;;;;;11.10;10.60;;;;;;;;;;5045515;28;20048;-64
2023/07/25 06:23:31;;;;;;;11.37;10.87;;;;;;;;;;5043062;28;20394;-65
2023/07/25 06:25:56;;;;;;;11.37;10.87;;;;;;;;;;5047444;28;20025;-64
2023/07/25 06:28:22;;;;;;;11.35;10.85;;;;;;;;;;5045173;28;20028;-63
2023/07/25 06:30:47;;;;;;;11.50;11.00;;;;;;;;;;5042619;28;20021;-64
2023/07/25 06:33:14;;;;;;;11.50;11.00;;;;;;;;;;5042869;28;20272;-65
2023/07/25 06:35:39;;;;;;;11.30;10.80;;;;;;;;;;5040107;28;20033;-63
2023/07/25 06:38:04;;;;;;;11.60;11.10;;;;;;;;;;5041683;28;20078;-63
2023/07/25 06:40:30;;;;;;;11.50;11.00;;;;;;;;;;5039461;28;20298;-64
2023/07/25 06:42:55;;;;;;;11.60;11.10;;;;;;;;;;5048262;28;20037;-63
2023/07/25 06:45:20;;;;;;;11.13;10.63;;;;;;;;;;5029577;28;20021;-64
2023/07/25 06:47:45;;;;;;;11.77;11.27;;;;;;;;;;5029532;28;20021;-62
2023/07/25 06:50:11;;;;;;;11.70;11.20;;;;;;;;;;5047502;28;20033;-63
2023/07/25 06:52:36;;;;;;;11.38;10.88;;;;;;;;;;5046596;28;20052;-65
2023/07/25 06:55:01;;;;;;;11.43;10.93;;;;;;;;;;5046820;28;20029;-65
2023/07/25 06:57:28;;;;;;;11.63;11.13;;;;;;;;;;5046409;28;20531;-66
2023/07/25 06:59:55;;;;;;;11.70;11.20;;;;;;;;;;5047025;28;20269;-64
2023/07/25 07:02:20;;;;;;;11.27;10.77;;;;;;;;;;5046330;28;20078;-64
2023/07/25 07:04:45;;;;;;;11.27;10.77;;;;;;;;;;5045917;28;20442;-64
2023/07/25 07:07:11;;;;;;;11.38;10.88;;;;;;;;;;5028648;28;20683;-65
2023/07/25 07:09:36;;;;;;;11.43;10.93;;;;;;;;;;5046056;28;20100;-62
2023/07/25 07:12:01;;;;;;;11.77;11.27;;;;;;;;;;5047760;28;20020;-66
2023/07/25 07:14:27;;;;;;;11.80;11.30;;;;;;;;;;5046306;28;20609;-63
2023/07/25 07:16:52;;;;;;;11.80;11.30;;;;;;;;;;5043707;28;20392;-66
2023/07/25 07:19:17;;;;;;;12.10;11.60;;;;;;;;;;5045266;28;20443;-62
2023/07/25 07:21:42;;;;;;;12.25;11.70;;;;;;;;;;5045092;28;20506;-62
2023/07/25 07:24:08;;;;;;;12.20;11.68;;;;;;;;;;5044453;28;20025;-62
2023/07/25 07:26:33;;;;;;;11.87;11.37;;;;;;;;;;5044728;28;20033;-62
2023/07/25 07:28:58;;;;;;;12.27;11.67;;;;;;;;;;5046606;28;20166;-63
2023/07/25 07:31:25;;;;;;;11.90;11.40;;;;;;;;;;5044532;28;20029;-64
2023/07/25 07:33:51;;;;;;;12.45;11.85;;;;;;;;;;5040119;28;20039;-63
2023/07/25 07:36:17;;;;;;;12.27;11.68;;;;;;;;;;5044049;28;20029;-64
2023/07/25 07:38:42;;;;;;;13.00;12.40;;;;;;;;;;5041936;28;20035;-63
2023/07/25 07:41:07;;;;;;;11.93;11.43;;;;;;;;;;5042191;28;20270;-63
2023/07/25 07:43:32;;;;;;;12.40;11.80;;;;;;;;;;5043279;28;20025;-63
2023/07/25 07:45:58;;;;;;;12.60;12.00;;;;;;;;;;5044600;28;20020;-64
2023/07/25 07:48:23;;;;;;;12.05;11.55;;;;;;;;;;5045452;28;20025;-63
2023/07/25 07:50:49;;;;;;;11.73;11.23;;;;;;;;;;5044969;28;20017;-62
2023/07/25 07:53:15;;;;;;;12.50;11.90;;;;;;;;;;5047109;28;20443;-63
2023/07/25 07:55:40;;;;;;;12.32;11.73;;;;;;;;;;5044868;28;20025;-63
2023/07/25 07:58:06;;;;;;;11.80;11.30;;;;;;;;;;5044716;28;20049;-63
2023/07/25 08:00:31;;;;;;;12.45;11.85;;;;;;;;;;5045059;28;20025;-62
2023/07/25 08:02:56;;;;;;;12.43;11.82;;;;;;;;;;5040955;28;20468;-63
2023/07/25 08:05:22;;;;;;;11.82;11.32;;;;;;;;;;5043522;28;20063;-63
2023/07/25 08:07:47;;;;;;;12.40;11.80;;;;;;;;;;5044335;28;20259;-63
2023/07/25 08:10:13;;;;;;;12.30;11.70;;;;;;;;;;5028141;28;20029;-64
2023/07/25 08:12:38;;;;;;;11.90;11.40;;;;;;;;;;5045711;28;20025;-64
2023/07/25 08:15:04;;;;;;;12.00;11.50;;;;;;;;;;5039431;28;20052;-64
2023/07/25 08:17:29;;;;;;;12.10;11.60;;;;;;;;;;5040030;28;20029;-64
2023/07/25 08:19:55;;;;;;;11.98;11.48;;;;;;;;;;5044276;28;20475;-65
2023/07/25 08:22:20;;;;;;;12.48;11.88;;;;;;;;;;5042467;28;20384;-64
2023/07/25 08:24:45;;;;;;;11.77;11.27;;;;;;;;;;5043345;28;20422;-64
2023/07/25 08:27:11;;;;;;;12.10;11.60;;;;;;;;;;5042929;28;20262;-64
2023/07/25 08:29:45;;;;;;;12.00;11.50;;;;;;;;;;5044445;28;20054;-64
2023/07/25 08:32:10;;;;;;;11.85;11.35;;;;;;;;;;5043151;28;20037;-63
2023/07/25 08:34:36;;;;;;;11.67;11.17;;;;;;;;;;5044672;28;20082;-66
2023/07/25 08:37:01;;;;;;;12.07;11.57;;;;;;;;;;5029641;28;20259;-65
2023/07/25 08:39:26;;;;;;;11.82;11.32;;;;;;;;;;5045705;28;20035;-67
2023/07/25 08:41:53;;;;;;;11.90;11.40;;;;;;;;;;5044115;28;20028;-64
2023/07/25 08:44:21;;;;;;;11.82;11.32;;;;;;;;;;5041907;28;20112;-66
2023/07/25 08:46:49;;;;;;;11.48;10.98;;;;;;;;;;5044047;28;20108;-64
2023/07/25 08:49:15;;;;;;;11.90;11.40;;;;;;;;;;5026133;28;21122;-65
2023/07/25 08:51:44;;;;;;;12.10;11.60;;;;;;;;;;5046692;28;20025;-63
2023/07/25 08:54:24;;;;;;;12.02;11.52;;;;;;;;;;5045953;28;20027;-63
2023/07/25 08:56:50;;;;;;;11.57;11.07;;;;;;;;;;5047481;28;20025;-65
2023/07/25 08:59:17;;;;;;;11.90;11.40;;;;;;;;;;5049628;28;20083;-64
2023/07/25 09:01:42;;;;;;;12.02;11.52;;;;;;;;;;5048234;28;20454;-64
2023/07/25 09:04:09;;;;;;;12.15;11.65;;;;;;;;;;5044360;28;20029;-64
2023/07/25 09:06:34;;;;;;;12.40;11.80;;;;;;;;;;5044078;28;20021;-63
2023/07/25 09:09:00;;;;;;;12.27;11.70;;;;;;;;;;5046232;28;20029;-63
2023/07/25 09:11:26;;;;;;;12.15;11.65;;;;;;;;;;5045570;28;20327;-64
2023/07/25 09:13:51;;;;;;;11.85;11.35;;;;;;;;;;5047794;28;20021;-64
2023/07/25 09:16:16;;;;;;;12.00;11.50;;;;;;;;;;5048337;28;20052;-64
2023/07/25 09:18:43;;;;;;;12.02;11.52;;;;;;;;;;5047711;28;20079;-63
2023/07/25 09:21:09;;;;;;;11.68;11.18;;;;;;;;;;5046070;28;20028;-64
2023/07/25 09:23:34;;;;;;;11.93;11.43;;;;;;;;;;5047361;28;20484;-62
2023/07/25 09:26:08;;;;;;;12.18;11.68;;;;;;;;;;5046511;28;20104;-63
2023/07/25 09:28:34;;;;;;;11.82;11.32;;;;;;;;;;5046216;28;20442;-62
2023/07/25 09:31:05;;;;;;;11.68;11.18;;;;;;;;;;5046998;28;20021;-63
2023/07/25 09:33:30;;;;;;;12.68;12.07;;;;;;;;;;5047869;28;20052;-64
2023/07/25 09:35:57;;;;;;;11.85;11.35;;;;;;;;;;5044234;28;20476;-63
2023/07/25 09:38:22;;;;;;;11.88;11.38;;;;;;;;;;5046579;28;20028;-64
2023/07/25 09:40:47;;;;;;;11.70;11.20;;;;;;;;;;5047857;28;20511;-62
2023/07/25 09:43:23;;;;;;;11.73;11.23;;;;;;;;;;5046181;28;20282;-64
2023/07/25 09:45:48;;;;;;;11.75;11.25;;;;;;;;;;5048426;28;20112;-64
2023/07/25 09:48:17;;;;;;;11.80;11.30;;;;;;;;;;5042498;28;20087;-63
2023/07/25 09:50:46;;;;;;;11.50;11.00;;;;;;;;;;5046625;28;20082;-61
2023/07/25 09:53:12;;;;;;;11.18;10.68;;;;;;;;;;5049170;28;20052;-63
2023/07/25 09:55:37;;;;;;;11.57;11.07;;;;;;;;;;5050182;28;20029;-62
2023/07/25 09:58:03;;;;;;;10.93;10.43;;;;;;;;;;5047714;28;20074;-60
2023/07/25 10:00:28;;;;;;;11.18;10.68;;;;;;;;;;5049364;28;20017;-61
2023/07/25 10:02:54;;;;;;;11.60;11.10;;;;;;;;;;5050331;28;20024;-61
2023/07/25 10:05:20;;;;;;;11.30;10.80;;;;;;;;;;5051117;28;20021;-60
2023/07/25 10:07:47;;;;;;;11.23;10.73;;;;;;;;;;5050061;28;20052;-61
2023/07/25 10:10:13;;;;;;;11.07;10.57;;;;;;;;;;5052612;28;20045;-59
2023/07/25 10:12:39;;;;;;;10.98;10.48;;;;;;;;;;5050846;28;20025;-61
2023/07/25 10:15:04;;;;;;;11.18;10.68;;;;;;;;;;5051007;28;20024;-60
2023/07/25 10:17:30;;;;;;;11.10;10.60;;;;;;;;;;5052347;28;20108;-61
2023/07/25 10:19:55;;;;;;;10.93;10.43;;;;;;;;;;5050979;28;20040;-60
2023/07/25 10:22:37;;;;;;;11.05;10.55;;;;;;;;;;5052581;28;20082;-61
2023/07/25 10:25:07;;;;;;;11.18;10.68;;;;;;;;;;5050563;28;20025;-61
2023/07/25 10:27:33;;;;;;;11.50;11.00;;;;;;;;;;5052399;28;20492;-60
2023/07/25 10:30:00;;;;;;;11.18;10.68;;;;;;;;;;5050629;28;20079;-61
2023/07/25 10:32:41;;;;;;;11.20;10.70;;;;;;;;;;5050768;28;20040;-60
2023/07/25 10:35:07;;;;;;;11.02;10.52;;;;;;;;;;5050638;28;20025;-61
2023/07/25 10:37:38;;;;;;;10.95;10.45;;;;;;;;;;5055109;28;20019;-61
2023/07/25 10:40:06;;;;;;;11.35;10.85;;;;;;;;;;5048438;28;20047;-62
2023/07/25 10:42:41;;;;;;;11.70;11.20;;;;;;;;;;5051771;28;20033;-61
2023/07/25 10:45:06;;;;;;;11.07;10.57;;;;;;;;;;5051216;28;20037;-62
2023/07/25 10:47:59;;;;;;;11.20;10.70;;;;;;;;;;5052480;28;20017;-61
2023/07/25 10:50:26;;;;;;;11.10;10.60;;;;;;;;;;5046460;28;20086;-61
2023/07/25 10:52:51;;;;;;;11.20;10.70;;;;;;;;;;5052360;28;20082;-62
2023/07/25 10:55:16;;;;;;;11.00;10.50;;;;;;;;;;5052012;28;20033;-62
2023/07/25 10:58:02;;;;;;;11.10;10.60;;;;;;;;;;5050054;28;20127;-60
2023/07/25 11:00:34;;;;;;;10.80;10.30;;;;;;;;;;5051467;28;20021;-61
2023/07/25 11:02:59;;;;;;;11.10;10.60;;;;;;;;;;5051496;28;20446;-60
2023/07/25 11:05:24;;;;;;;11.10;10.60;;;;;;;;;;5049888;28;20021;-62
2023/07/25 11:07:51;;;;;;;10.82;10.32;;;;;;;;;;5051565;28;20286;-61
2023/07/25 11:10:19;;;;;;;11.55;11.05;;;;;;;;;;5051957;28;20025;-60
2023/07/25 11:12:48;;;;;;;10.70;10.20;;;;;;;;;;5050951;28;20496;-64
2023/07/25 11:15:14;;;;;;;10.60;10.10;;;;;;;;;;5053444;28;20029;-62
2023/07/25 11:17:40;;;;;;;11.10;10.60;;;;;;;;;;5051820;28;20025;-60
2023/07/25 11:20:16;;;;;;;10.98;10.48;;;;;;;;;;5052139;28;20258;-61
2023/07/25 11:22:41;;;;;;;11.00;10.50;;;;;;;;;;5059618;28;20043;-63
2023/07/25 11:25:10;;;;;;;11.00;10.50;;;;;;;;;;5055465;28;20523;-60
2023/07/25 11:27:42;;;;;;;11.15;10.65;;;;;;;;;;5049596;28;20025;-60
2023/07/25 11:30:11;;;;;;;11.25;10.75;;;;;;;;;;5051708;28;20012;-60
2023/07/25 11:32:37;;;;;;;11.18;10.68;;;;;;;;;;5049405;28;20043;-58
2023/07/25 11:35:03;;;;;;;11.30;10.80;;;;;;;;;;5050940;28;20510;-60
2023/07/25 11:37:28;;;;;;;10.95;10.45;;;;;;;;;;5048604;28;20446;-59
2023/07/25 11:39:53;;;;;;;10.90;10.40;;;;;;;;;;5050710;28;20025;-60
2023/07/25 11:42:18;;;;;;;11.13;10.63;;;;;;;;;;5050503;28;20345;-60
2023/07/25 11:44:44;;;;;;;11.20;10.70;;;;;;;;;;5033189;28;20017;-60
2023/07/25 11:47:11;;;;;;;11.35;10.85;;;;;;;;;;5047843;28;20025;-60
2023/07/25 11:49:36;;;;;;;11.10;10.60;;;;;;;;;;5049309;28;20491;-60
2023/07/25 11:52:02;;;;;;;12.45;11.88;;;;;;;;;;5043967;28;20028;-62
2023/07/25 11:54:27;;;;;;;11.55;11.05;;;;;;;;;;5041582;28;20021;-61
2023/07/25 11:56:53;;;;;;;11.63;11.13;;;;;;;;;;5038893;28;20060;-62
2023/07/25 11:59:18;;;;;;;11.70;11.20;;;;;;;;;;5039178;28;20074;-62
2023/07/25 12:01:44;;;;;;;11.55;11.05;;;;;;;;;;5040592;28;20323;-62
2023/07/25 12:04:14;;;;;;;11.60;11.10;;;;;;;;;;5044587;28;20044;-63
2023/07/25 12:06:39;;;;;;;11.35;10.85;;;;;;;;;;5042039;28;20032;-66
2023/07/25 12:09:06;;;;;;;11.52;11.02;;;;;;;;;;5042841;28;20029;-62
2023/07/25 12:11:39;;;;;;;11.10;10.60;;;;;;;;;;5043103;28;20021;-60
2023/07/25 12:14:08;;;;;;;11.15;10.65;;;;;;;;;;5039812;28;20033;-61
2023/07/25 12:16:36;;;;;;;11.85;11.35;;;;;;;;;;5043723;28;20032;-60
2023/07/25 12:19:03;;;;;;;11.50;11.00;;;;;;;;;;5041705;28;20051;-62
2023/07/25 12:21:30;;;;;;;11.70;11.20;;;;;;;;;;5042667;28;20028;-63
2023/07/25 12:24:00;;;;;;;11.55;11.05;;;;;;;;;;5042575;28;20089;-63
2023/07/25 12:26:26;;;;;;;11.77;11.27;;;;;;;;;;5043050;28;20078;-62
2023/07/25 12:28:52;;;;;;;11.80;11.30;;;;;;;;;;5036960;28;20036;-62
2023/07/25 12:31:17;;;;;;;11.98;11.48;;;;;;;;;;5038262;28;20048;-61
2023/07/25 12:33:44;;;;;;;11.60;11.10;;;;;;;;;;5037190;28;20041;-62
2023/07/25 12:36:10;;;;;;;11.45;10.95;;;;;;;;;;5043508;28;20028;-62
2023/07/25 12:38:35;;;;;;;11.30;10.80;;;;;;;;;;5045486;28;20485;-61
2023/07/25 12:41:00;;;;;;;11.30;10.80;;;;;;;;;;5044926;28;20376;-62
2023/07/25 12:43:26;;;;;;;11.33;10.83;;;;;;;;;;5040137;28;20021;-62
2023/07/25 12:45:51;;;;;;;11.38;10.88;;;;;;;;;;5040694;28;20262;-60
2023/07/25 12:48:16;;;;;;;11.27;10.77;;;;;;;;;;5047091;28;20027;-61
2023/07/25 12:50:42;;;;;;;11.83;11.33;;;;;;;;;;5043347;28;20104;-61
2023/07/25 12:53:07;;;;;;;11.00;10.50;;;;;;;;;;5041667;28;20278;-62
2023/07/25 12:55:33;;;;;;;13.23;12.63;;;;;;;;;;5032362;28;20063;-62
2023/07/25 12:57:58;;;;;;;11.93;11.43;;;;;;;;;;5036481;28;20107;-62
2023/07/25 13:00:24;;;;;;;11.53;11.03;;;;;;;;;;5042386;28;20044;-62
2023/07/25 13:02:49;;;;;;;11.65;11.15;;;;;;;;;;5037103;28;20112;-63
2023/07/25 13:05:14;;;;;;;11.27;10.77;;;;;;;;;;5037541;28;20057;-63
2023/07/25 13:07:39;;;;;;;11.50;11.00;;;;;;;;;;5041359;28;20800;-62
2023/07/25 13:10:06;;;;;;;11.40;10.90;;;;;;;;;;5038432;28;20032;-62
2023/07/25 13:12:32;;;;;;;11.45;10.95;;;;;;;;;;5040929;28;20268;-64
2023/07/25 13:14:57;;;;;;;11.45;10.95;;;;;;;;;;5039752;28;20029;-63
2023/07/25 13:17:23;;;;;;;11.80;11.30;;;;;;;;;;5042408;28;20028;-62
2023/07/25 13:19:48;;;;;;;11.30;10.80;;;;;;;;;;5040412;28;20021;-63
2023/07/25 13:22:13;;;;;;;11.97;11.47;;;;;;;;;;5036108;28;20472;-62
2023/07/25 13:24:39;;;;;;;11.38;10.88;;;;;;;;;;5036559;28;20288;-64
2023/07/25 13:27:04;;;;;;;11.57;11.07;;;;;;;;;;5036997;28;20017;-64
2023/07/25 13:29:29;;;;;;;11.80;11.30;;;;;;;;;;5040950;28;20281;-62
2023/07/25 13:31:55;;;;;;;11.55;11.05;;;;;;;;;;5041801;28;20029;-61
2023/07/25 13:34:20;;;;;;;11.70;11.20;;;;;;;;;;5042850;28;20110;-63
2023/07/25 13:36:45;;;;;;;11.40;10.90;;;;;;;;;;5044433;28;20064;-60
2023/07/25 13:39:11;;;;;;;11.50;11.00;;;;;;;;;;5047309;28;20032;-63
2023/07/25 13:41:36;;;;;;;12.00;11.50;;;;;;;;;;5028680;28;20361;-61
2023/07/25 13:44:01;;;;;;;11.60;11.10;;;;;;;;;;5049661;28;20274;-62
2023/07/25 13:46:27;;;;;;;12.02;11.52;;;;;;;;;;5048663;28;20363;-62
2023/07/25 13:48:52;;;;;;;11.85;11.35;;;;;;;;;;5047345;28;20032;-61
2023/07/25 13:51:17;;;;;;;11.53;11.03;;;;;;;;;;5043450;28;20144;-62
2023/07/25 13:53:43;;;;;;;11.60;11.10;;;;;;;;;;5049614;28;20261;-62
2023/07/25 13:56:08;;;;;;;11.60;11.10;;;;;;;;;;5049033;28;20031;-63
2023/07/25 13:58:33;;;;;;;11.68;11.18;;;;;;;;;;5046382;28;20037;-62
2023/07/25 14:00:59;;;;;;;11.50;11.00;;;;;;;;;;5045036;28;20480;-63
2023/07/25 14:03:25;;;;;;;11.48;10.98;;;;;;;;;;5044070;28;20274;-63
2023/07/25 14:05:50;;;;;;;11.38;10.88;;;;;;;;;;5043715;28;20021;-62
2023/07/25 14:08:15;;;;;;;11.27;10.77;;;;;;;;;;5027751;28;20083;-61